KR-0400 weather

Joong Ang Computer Mall Heliport
Busan, Busan Gwang'yeogsi, South Korea

Public forecast

Using degrees Celsius for public forecast. Weather courtesy of forecast.io.

Closest aviation weather report (METAR) to Joong Ang Computer Mall Heliport

Closest report is Gimhae International Airport, 6.8 nm (12.6 km) NW. Retrieved 2020/07/09 01:00 UTC (27 minutes ago):

RKPK 090100Z 11007KT 8000 BKN015 BKN020 25/19 Q1006

Closest aviation forecast (TAF) to Joong Ang Computer Mall Heliport

Closest forecast is Gimhae International Airport, 6.8 nm (12.6 km) NW. Retrieved 2020-07-09 00:00 UTC (1 hour ago):

TAF RKPK 082300Z 0900/1006 07006KT 6000 BKN015 BKN025 TX28/0905Z TN24/0920Z BECMG 0902/0903 11010KT 9999 NSW SCT030 BECMG 0910/0911 09008KT 4800 -RA BR BKN030 BKN100